createdAt,value
2017-08-30T00:02:16.680Z,16.10
2017-08-30T00:04:44.211Z,16.00
2017-08-30T00:07:11.714Z,15.90
2017-08-30T00:09:39.268Z,15.80
2017-08-30T00:12:06.822Z,15.80
2017-08-30T00:14:34.367Z,15.80
2017-08-30T00:17:01.860Z,15.80
2017-08-30T00:19:29.439Z,15.80
2017-08-30T00:21:57.005Z,15.80
2017-08-30T00:27:24.681Z,15.90
2017-08-30T00:29:52.213Z,15.90
2017-08-30T00:32:19.806Z,15.90
2017-08-30T00:34:47.401Z,15.90
2017-08-30T00:37:14.929Z,15.80
2017-08-30T00:39:42.446Z,15.80
2017-08-30T00:42:10.052Z,15.70
2017-08-30T00:44:37.582Z,15.70
2017-08-30T00:47:05.122Z,15.60
2017-08-30T00:49:32.678Z,15.60
2017-08-30T00:52:00.240Z,15.60
2017-08-30T00:54:27.797Z,15.60
2017-08-30T00:56:55.334Z,15.50
2017-08-30T00:59:22.871Z,15.50
2017-08-30T01:01:50.405Z,15.40
2017-08-30T01:04:17.915Z,15.40
2017-08-30T01:06:45.495Z,15.40
2017-08-30T01:09:13.094Z,15.30
2017-08-30T01:11:40.697Z,15.30
2017-08-30T01:14:08.263Z,15.30
2017-08-30T01:16:35.757Z,15.30
2017-08-30T01:19:03.370Z,15.20
2017-08-30T01:21:30.905Z,15.20
2017-08-30T01:23:58.434Z,15.20
2017-08-30T01:26:25.927Z,15.20
2017-08-30T01:28:53.490Z,15.20
2017-08-30T01:31:21.060Z,15.20
2017-08-30T01:33:48.613Z,15.20
2017-08-30T01:36:16.161Z,15.20
2017-08-30T01:38:44.485Z,15.10
2017-08-30T01:41:12.095Z,15.20
2017-08-30T01:43:39.656Z,15.20
2017-08-30T01:46:07.243Z,15.20
2017-08-30T01:48:34.824Z,15.20
2017-08-30T01:51:02.370Z,15.20
2017-08-30T01:53:29.923Z,15.30
2017-08-30T01:55:57.449Z,15.30
2017-08-30T01:58:25.030Z,15.20
2017-08-30T02:00:52.557Z,15.30
2017-08-30T02:03:20.113Z,15.30
2017-08-30T02:05:47.652Z,15.30
2017-08-30T02:08:15.202Z,15.40
2017-08-30T02:10:42.744Z,15.40
2017-08-30T02:13:10.314Z,15.50
2017-08-30T02:15:37.873Z,15.60
2017-08-30T02:18:05.422Z,15.70
2017-08-30T02:20:32.952Z,15.70
2017-08-30T02:23:00.453Z,15.70
2017-08-30T02:25:28.003Z,15.60
2017-08-30T02:27:55.497Z,15.60
2017-08-30T02:30:23.071Z,15.50
2017-08-30T02:32:54.232Z,15.50
2017-08-30T02:35:21.994Z,15.60
2017-08-30T02:37:53.903Z,15.60
2017-08-30T02:40:21.410Z,15.50
2017-08-30T02:42:48.991Z,15.40
2017-08-30T02:45:16.578Z,15.40
2017-08-30T02:47:44.136Z,15.30
2017-08-30T02:50:11.674Z,15.20
2017-08-30T02:52:39.188Z,15.10
2017-08-30T02:55:06.757Z,15.00
2017-08-30T02:57:34.305Z,15.00
2017-08-30T03:00:01.839Z,14.90
2017-08-30T03:02:29.382Z,15.00
2017-08-30T03:04:56.918Z,15.00
2017-08-30T03:07:24.428Z,15.00
2017-08-30T03:09:52.144Z,14.90
2017-08-30T03:12:19.657Z,14.80
2017-08-30T03:14:47.184Z,14.80
2017-08-30T03:17:14.733Z,14.70
2017-08-30T03:19:42.240Z,14.60
2017-08-30T03:22:09.764Z,14.60
2017-08-30T03:24:37.305Z,14.50
2017-08-30T03:27:04.830Z,14.50
2017-08-30T03:29:32.369Z,14.40
2017-08-30T03:31:59.914Z,14.40
2017-08-30T03:34:27.424Z,14.30
2017-08-30T03:36:55.026Z,14.30
2017-08-30T03:39:22.557Z,14.20
2017-08-30T03:41:50.059Z,14.20
2017-08-30T03:44:17.673Z,14.20
2017-08-30T03:46:45.273Z,14.20
2017-08-30T03:49:12.827Z,14.10
2017-08-30T03:51:40.392Z,14.20
2017-08-30T03:54:07.970Z,14.10
2017-08-30T03:56:35.565Z,14.10
2017-08-30T03:59:03.663Z,14.10
2017-08-30T04:01:31.219Z,14.10
2017-08-30T04:03:58.799Z,14.10
2017-08-30T04:06:26.358Z,14.20
2017-08-30T04:08:53.907Z,14.10
2017-08-30T04:11:21.431Z,14.10
2017-08-30T04:13:48.951Z,14.20
2017-08-30T04:16:16.554Z,14.40
2017-08-30T04:18:44.056Z,14.60
2017-08-30T04:21:11.599Z,14.80
2017-08-30T04:23:39.233Z,14.90
2017-08-30T04:26:06.703Z,15.10
2017-08-30T04:28:34.279Z,15.20
2017-08-30T04:31:01.842Z,15.30
2017-08-30T04:33:29.394Z,15.40
2017-08-30T04:35:56.952Z,15.80
2017-08-30T04:38:24.464Z,16.40
2017-08-30T04:40:51.983Z,17.00
2017-08-30T04:43:19.547Z,17.60
2017-08-30T04:45:47.095Z,18.20
2017-08-30T04:48:14.635Z,18.60
2017-08-30T04:50:42.146Z,19.20
2017-08-30T04:53:09.671Z,19.70
2017-08-30T04:55:37.199Z,20.10
2017-08-30T04:58:04.724Z,20.70
2017-08-30T05:00:32.283Z,21.30
2017-08-30T05:02:59.898Z,21.70
2017-08-30T05:05:27.454Z,21.90
2017-08-30T05:07:55.050Z,22.40
2017-08-30T05:10:22.594Z,23.00
2017-08-30T05:12:50.090Z,23.20
2017-08-30T05:15:17.636Z,23.90
2017-08-30T05:17:45.167Z,24.30
2017-08-30T05:20:12.742Z,25.00
2017-08-30T05:22:40.305Z,25.30
2017-08-30T05:25:07.852Z,25.70
2017-08-30T05:27:35.407Z,25.80
2017-08-30T05:30:02.958Z,25.90
2017-08-30T05:32:30.527Z,26.40
2017-08-30T05:34:58.045Z,26.70
2017-08-30T05:37:25.610Z,27.00
2017-08-30T05:39:53.145Z,26.90
2017-08-30T05:42:21.451Z,27.00
2017-08-30T05:44:48.994Z,27.50
2017-08-30T05:47:16.478Z,27.90
2017-08-30T05:49:44.055Z,28.00
2017-08-30T05:52:11.606Z,28.30
2017-08-30T05:54:39.149Z,28.40
2017-08-30T05:57:06.729Z,28.80
2017-08-30T05:59:34.268Z,29.30
2017-08-30T06:02:01.785Z,29.20
2017-08-30T06:04:29.369Z,29.60
2017-08-30T06:06:56.868Z,29.50
2017-08-30T06:09:24.453Z,29.90
2017-08-30T06:11:52.015Z,30.30
2017-08-30T06:14:19.593Z,30.10
2017-08-30T06:16:47.105Z,30.50
2017-08-30T06:19:14.637Z,30.10
2017-08-30T06:21:42.222Z,30.10
2017-08-30T06:24:09.762Z,30.20
2017-08-30T06:26:37.302Z,30.30
2017-08-30T06:29:04.887Z,30.00
2017-08-30T06:31:32.430Z,30.50
2017-08-30T06:33:59.982Z,30.90
2017-08-30T06:36:27.535Z,31.00
2017-08-30T06:38:55.089Z,31.30
2017-08-30T06:41:22.635Z,32.40
2017-08-30T06:43:50.175Z,33.20
2017-08-30T06:46:17.721Z,33.50
2017-08-30T06:48:45.268Z,32.50
2017-08-30T06:51:12.823Z,33.00
2017-08-30T06:53:40.434Z,33.20
2017-08-30T06:56:07.993Z,32.80
2017-08-30T06:58:35.533Z,33.00
2017-08-30T07:01:03.104Z,33.20
2017-08-30T07:03:30.667Z,33.80
2017-08-30T07:05:58.168Z,34.00
2017-08-30T07:08:25.731Z,34.40
2017-08-30T07:10:53.280Z,34.70
2017-08-30T07:13:20.842Z,34.30
2017-08-30T07:15:48.466Z,34.10
2017-08-30T07:18:16.025Z,34.40
2017-08-30T07:20:43.589Z,34.40
2017-08-30T07:23:11.144Z,34.20
2017-08-30T07:25:38.720Z,34.20
2017-08-30T07:28:06.310Z,34.10
2017-08-30T07:30:33.880Z,33.90
2017-08-30T07:33:01.400Z,34.30
2017-08-30T07:35:28.951Z,34.50
2017-08-30T07:37:56.572Z,33.70
2017-08-30T07:40:24.094Z,34.40
2017-08-30T07:42:51.674Z,33.70
2017-08-30T07:45:19.261Z,33.50
2017-08-30T07:47:46.838Z,33.60
2017-08-30T07:50:14.383Z,32.40
2017-08-30T07:52:41.920Z,33.00
2017-08-30T07:55:09.443Z,33.50
2017-08-30T07:57:37.011Z,33.90
2017-08-30T08:00:04.555Z,34.80
2017-08-30T08:02:32.111Z,35.50
2017-08-30T08:04:59.701Z,36.20
2017-08-30T08:07:27.239Z,36.20
2017-08-30T08:09:54.791Z,34.50
2017-08-30T08:12:22.343Z,34.10
2017-08-30T08:14:49.873Z,34.60
2017-08-30T08:17:17.403Z,34.10
2017-08-30T08:19:44.928Z,34.30
2017-08-30T08:22:12.471Z,32.90
2017-08-30T08:24:40.053Z,33.90
2017-08-30T08:27:07.597Z,34.70
2017-08-30T08:29:35.153Z,34.50
2017-08-30T08:32:02.680Z,35.20
2017-08-30T08:34:30.202Z,35.70
2017-08-30T08:36:58.411Z,35.40
2017-08-30T08:39:25.902Z,34.80
2017-08-30T08:41:53.518Z,35.50
2017-08-30T08:44:21.088Z,36.00
2017-08-30T08:46:48.593Z,36.80
2017-08-30T08:49:16.153Z,35.50
2017-08-30T08:51:43.678Z,35.10
2017-08-30T08:54:11.197Z,35.00
2017-08-30T08:56:38.801Z,35.10
2017-08-30T08:59:06.369Z,35.70
2017-08-30T09:01:33.933Z,36.10
2017-08-30T09:04:01.460Z,36.60
2017-08-30T09:06:29.787Z,37.50
2017-08-30T09:08:57.343Z,37.40
2017-08-30T09:11:24.851Z,37.40
2017-08-30T09:13:52.376Z,37.30
2017-08-30T09:16:19.953Z,37.70
2017-08-30T09:18:47.699Z,36.70
2017-08-30T09:21:15.195Z,38.00
2017-08-30T09:23:42.692Z,38.40
2017-08-30T09:26:10.255Z,37.10
2017-08-30T09:28:37.792Z,36.50
2017-08-30T09:31:05.368Z,35.80
2017-08-30T09:33:32.945Z,35.90
2017-08-30T09:36:00.495Z,36.90
2017-08-30T09:38:28.060Z,36.80
2017-08-30T09:40:55.547Z,37.10
2017-08-30T09:43:23.045Z,37.50
2017-08-30T09:45:50.618Z,37.40
2017-08-30T09:48:18.161Z,36.70
2017-08-30T09:50:45.704Z,36.40
2017-08-30T09:53:13.276Z,36.50
2017-08-30T09:55:40.834Z,36.70
2017-08-30T09:58:08.357Z,37.40
2017-08-30T10:00:35.920Z,37.00
2017-08-30T10:03:03.468Z,37.00
2017-08-30T10:05:31.006Z,37.10
2017-08-30T10:07:58.534Z,37.70
2017-08-30T10:10:26.073Z,37.10
2017-08-30T10:12:53.616Z,37.70
2017-08-30T10:15:21.159Z,38.20
2017-08-30T10:17:48.696Z,38.50
2017-08-30T10:20:16.281Z,37.30
2017-08-30T10:22:43.838Z,38.10
2017-08-30T10:25:11.441Z,38.20
2017-08-30T10:27:38.963Z,38.40
2017-08-30T10:30:06.627Z,38.30
2017-08-30T10:32:34.193Z,38.10
2017-08-30T10:35:01.785Z,37.60
2017-08-30T10:37:29.334Z,37.90
2017-08-30T10:39:56.904Z,37.20
2017-08-30T10:42:24.477Z,36.50
2017-08-30T10:44:52.052Z,36.60
2017-08-30T10:47:19.577Z,36.60
2017-08-30T10:49:47.177Z,36.70
2017-08-30T10:52:14.734Z,37.10
2017-08-30T10:54:42.309Z,36.90
2017-08-30T10:57:09.874Z,35.60
2017-08-30T10:59:37.461Z,36.10
2017-08-30T11:02:05.078Z,36.30
2017-08-30T11:04:32.699Z,36.50
2017-08-30T11:07:00.259Z,36.40
2017-08-30T11:09:27.845Z,37.50
2017-08-30T11:11:55.425Z,37.30
2017-08-30T11:14:23.007Z,37.70
2017-08-30T11:16:51.417Z,37.10
2017-08-30T11:19:19.003Z,36.40
2017-08-30T11:21:46.578Z,35.80
2017-08-30T11:24:14.168Z,35.90
2017-08-30T11:26:42.008Z,36.80
2017-08-30T11:29:09.563Z,36.20
2017-08-30T11:31:37.114Z,36.40
2017-08-30T11:34:04.601Z,36.10
2017-08-30T11:36:32.157Z,35.60
2017-08-30T11:38:59.723Z,35.40
2017-08-30T11:41:27.318Z,35.70
2017-08-30T11:43:54.987Z,35.10
2017-08-30T11:46:22.588Z,35.40
2017-08-30T11:48:50.158Z,35.10
2017-08-30T11:51:17.695Z,34.50
2017-08-30T11:53:45.273Z,33.00
2017-08-30T11:56:12.822Z,31.20
2017-08-30T11:58:40.414Z,30.20
2017-08-30T12:01:07.952Z,29.40
2017-08-30T12:03:35.501Z,28.80
2017-08-30T12:06:03.072Z,28.50
2017-08-30T12:08:30.593Z,28.40
2017-08-30T12:10:58.124Z,28.10
2017-08-30T12:13:25.685Z,27.70
2017-08-30T12:15:53.198Z,27.50
2017-08-30T12:18:20.780Z,27.10
2017-08-30T12:20:48.843Z,27.10
2017-08-30T12:23:16.356Z,27.30
2017-08-30T12:25:43.926Z,27.20
2017-08-30T12:28:11.435Z,27.40
2017-08-30T12:30:38.981Z,27.50
2017-08-30T12:33:06.531Z,27.40
2017-08-30T12:35:34.122Z,27.40
2017-08-30T12:38:18.493Z,27.30
2017-08-30T12:40:46.035Z,27.20
2017-08-30T12:43:14.705Z,27.20
2017-08-30T12:45:42.244Z,27.20
2017-08-30T12:48:09.852Z,27.30
2017-08-30T12:50:37.415Z,27.40
2017-08-30T12:53:04.919Z,27.40
2017-08-30T12:55:32.494Z,27.50
2017-08-30T12:58:00.217Z,27.50
2017-08-30T13:00:27.766Z,27.50
2017-08-30T13:02:56.080Z,27.70
2017-08-30T13:05:23.683Z,27.70
2017-08-30T13:07:51.295Z,27.60
2017-08-30T13:10:18.886Z,27.50
2017-08-30T13:12:47.151Z,27.50
2017-08-30T13:15:14.817Z,27.50
2017-08-30T13:17:42.397Z,27.50
2017-08-30T13:20:10.212Z,27.50
2017-08-30T13:22:37.827Z,27.60
2017-08-30T13:25:05.512Z,27.50
2017-08-30T13:27:33.052Z,27.30
2017-08-30T13:30:00.596Z,27.20
2017-08-30T13:32:28.215Z,27.30
2017-08-30T13:34:55.791Z,27.30
2017-08-30T13:37:23.432Z,27.50
2017-08-30T13:39:50.958Z,27.40
2017-08-30T13:42:18.530Z,27.30
2017-08-30T13:44:46.498Z,27.20
2017-08-30T13:47:14.246Z,27.10
2017-08-30T13:49:41.963Z,27.10
2017-08-30T13:52:09.527Z,27.30
2017-08-30T13:54:37.105Z,27.30
2017-08-30T13:57:04.669Z,27.20
2017-08-30T13:59:32.331Z,27.20
2017-08-30T14:01:59.911Z,27.40
2017-08-30T14:04:27.456Z,27.50
2017-08-30T14:06:55.019Z,27.50
2017-08-30T14:09:22.574Z,27.60
2017-08-30T14:11:50.166Z,27.50
2017-08-30T14:14:17.756Z,27.50
2017-08-30T14:16:46.172Z,27.50
2017-08-30T14:19:13.702Z,27.40
2017-08-30T14:21:41.297Z,27.50
2017-08-30T14:24:08.807Z,27.40
2017-08-30T14:26:36.428Z,27.20
2017-08-30T14:29:03.993Z,27.30
2017-08-30T14:31:31.512Z,27.40
2017-08-30T14:33:59.096Z,27.40
2017-08-30T14:36:27.418Z,27.30
2017-08-30T14:38:54.970Z,27.30
2017-08-30T14:41:22.496Z,27.30
2017-08-30T14:43:50.060Z,27.30
2017-08-30T14:46:17.719Z,27.10
2017-08-30T14:48:45.347Z,27.10
2017-08-30T14:51:13.120Z,27.00
2017-08-30T14:53:40.633Z,26.90
2017-08-30T14:56:08.225Z,26.90
2017-08-30T14:58:35.775Z,26.80
2017-08-30T15:01:03.332Z,26.80
2017-08-30T15:03:30.921Z,26.70
2017-08-30T15:05:58.604Z,26.80
2017-08-30T15:08:26.131Z,26.80
2017-08-30T15:10:53.723Z,26.80
2017-08-30T15:13:21.286Z,26.70
2017-08-30T15:15:48.860Z,26.70
2017-08-30T15:18:16.660Z,26.50
2017-08-30T15:20:44.223Z,26.60
2017-08-30T15:23:11.723Z,26.60
2017-08-30T15:25:39.354Z,26.60
2017-08-30T15:28:06.952Z,26.60
2017-08-30T15:30:35.398Z,26.60
2017-08-30T15:33:03.035Z,26.50
2017-08-30T15:35:30.576Z,26.50
2017-08-30T15:37:58.200Z,26.40
2017-08-30T15:40:25.755Z,26.40
2017-08-30T15:42:53.259Z,26.40
2017-08-30T15:45:20.888Z,26.20
2017-08-30T15:47:48.478Z,26.10
2017-08-30T15:50:16.083Z,26.00
2017-08-30T15:52:43.707Z,26.10
2017-08-30T15:55:11.355Z,26.10
2017-08-30T15:57:38.929Z,26.10
2017-08-30T16:00:06.482Z,26.10
2017-08-30T16:02:34.958Z,26.00
2017-08-30T16:05:02.666Z,25.90
2017-08-30T16:07:31.177Z,25.90
2017-08-30T16:09:58.760Z,25.90
2017-08-30T16:12:27.132Z,25.90
2017-08-30T16:14:54.755Z,25.80
2017-08-30T16:17:22.424Z,25.60
2017-08-30T16:19:50.895Z,25.50
2017-08-30T16:22:18.572Z,25.40
2017-08-30T16:24:46.277Z,25.30
2017-08-30T16:27:14.952Z,25.20
2017-08-30T16:29:42.574Z,25.10
2017-08-30T16:32:10.318Z,25.00
2017-08-30T16:34:38.047Z,24.80
2017-08-30T16:37:06.458Z,24.70
2017-08-30T16:39:34.339Z,24.60
2017-08-30T16:42:02.871Z,24.60
2017-08-30T16:44:30.495Z,24.50
2017-08-30T16:46:58.057Z,24.40
2017-08-30T16:49:26.439Z,24.20
2017-08-30T16:51:54.070Z,24.10
2017-08-30T16:54:21.723Z,23.90
2017-08-30T16:56:50.132Z,23.80
2017-08-30T16:59:17.670Z,23.70
2017-08-30T17:01:45.217Z,23.60
2017-08-30T17:04:12.820Z,23.50
2017-08-30T17:06:41.416Z,23.40
2017-08-30T17:09:09.052Z,23.30
2017-08-30T17:11:36.672Z,23.30
2017-08-30T17:14:04.442Z,23.20
2017-08-30T17:16:32.129Z,23.10
2017-08-30T17:18:59.676Z,23.10
2017-08-30T17:21:27.328Z,23.00
2017-08-30T17:23:54.973Z,23.00
2017-08-30T17:26:22.937Z,22.90
2017-08-30T17:28:51.207Z,22.80
2017-08-30T17:31:18.841Z,22.70
2017-08-30T17:33:46.648Z,22.50
2017-08-30T17:36:15.743Z,22.40
2017-08-30T17:38:43.946Z,22.30
2017-08-30T17:41:11.633Z,22.20
2017-08-30T17:43:39.219Z,22.20
2017-08-30T17:46:07.655Z,22.10
2017-08-30T17:48:35.316Z,22.20
2017-08-30T17:51:02.982Z,22.30
2017-08-30T17:53:31.573Z,22.30
2017-08-30T17:55:59.179Z,22.40
2017-08-30T17:58:27.472Z,22.30
2017-08-30T18:00:55.105Z,22.30
2017-08-30T18:03:22.732Z,22.40
2017-08-30T18:05:50.757Z,22.50
2017-08-30T18:08:18.408Z,22.60
2017-08-30T18:10:47.014Z,22.50
2017-08-30T18:13:15.265Z,22.40
2017-08-30T18:15:42.954Z,22.40
2017-08-30T18:18:10.578Z,22.30
2017-08-30T18:20:38.297Z,22.40
2017-08-30T18:23:06.171Z,22.30
2017-08-30T18:25:33.852Z,22.20
2017-08-30T18:28:01.518Z,22.10
2017-08-30T18:30:30.073Z,22.10
2017-08-30T18:32:57.688Z,22.00
2017-08-30T18:35:25.339Z,21.90
2017-08-30T18:37:52.956Z,21.90
2017-08-30T18:40:20.609Z,21.90
2017-08-30T18:42:48.293Z,21.80
2017-08-30T18:45:15.913Z,21.70
2017-08-30T18:47:44.228Z,21.70
2017-08-30T18:50:11.905Z,21.60
2017-08-30T18:52:39.536Z,21.60
2017-08-30T18:55:07.157Z,21.60
2017-08-30T18:57:34.794Z,21.70
2017-08-30T19:00:02.537Z,21.70
2017-08-30T19:02:30.149Z,21.70
2017-08-30T19:04:57.756Z,21.70
2017-08-30T19:07:25.989Z,21.70
2017-08-30T19:09:54.858Z,21.80
2017-08-30T19:12:23.377Z,21.70
2017-08-30T19:14:50.970Z,21.80
2017-08-30T19:17:18.544Z,21.70
2017-08-30T19:19:47.262Z,21.60
2017-08-30T19:22:15.159Z,21.50
2017-08-30T19:24:43.007Z,21.50
2017-08-30T19:27:10.697Z,21.60
2017-08-30T19:29:38.424Z,21.70
2017-08-30T19:32:06.423Z,21.70
2017-08-30T19:34:34.153Z,21.70
2017-08-30T19:37:01.874Z,21.80
2017-08-30T19:39:29.554Z,21.90
2017-08-30T19:41:57.175Z,21.90
2017-08-30T19:44:24.895Z,21.90
2017-08-30T19:46:52.611Z,21.90
2017-08-30T19:49:22.107Z,21.90
2017-08-30T19:51:49.896Z,22.00
2017-08-30T19:54:17.925Z,22.20
2017-08-30T19:56:45.647Z,22.20
2017-08-30T19:59:13.312Z,22.30
2017-08-30T20:01:41.073Z,22.30
2017-08-30T20:04:09.181Z,22.20
2017-08-30T20:06:36.918Z,22.20
2017-08-30T20:09:04.633Z,22.10
2017-08-30T20:11:32.306Z,22.00
2017-08-30T20:14:00.357Z,22.00
2017-08-30T20:16:29.058Z,22.00
2017-08-30T20:18:56.815Z,21.80
2017-08-30T20:21:24.565Z,21.80
2017-08-30T20:23:52.992Z,21.80
2017-08-30T20:26:22.205Z,21.80
2017-08-30T20:28:49.859Z,21.90
2017-08-30T20:31:17.460Z,21.90
2017-08-30T20:33:46.049Z,22.10
2017-08-30T20:36:13.704Z,22.40
2017-08-30T20:38:41.262Z,22.50
2017-08-30T20:41:08.938Z,22.50
2017-08-30T20:43:36.613Z,22.60
2017-08-30T20:46:04.281Z,22.60
2017-08-30T20:48:31.946Z,22.80
2017-08-30T20:51:00.364Z,22.70
2017-08-30T20:53:28.905Z,22.70
2017-08-30T20:55:56.755Z,22.60
2017-08-30T20:58:25.152Z,22.50
2017-08-30T21:00:52.821Z,22.50
2017-08-30T21:03:21.441Z,22.40
2017-08-30T21:05:49.135Z,22.30
2017-08-30T21:08:16.785Z,22.30
2017-08-30T21:10:44.405Z,22.40
2017-08-30T21:13:12.079Z,22.40
2017-08-30T21:15:39.750Z,22.40
2017-08-30T21:18:07.407Z,22.40
2017-08-30T21:20:34.988Z,22.40
2017-08-30T21:23:02.558Z,22.40
2017-08-30T21:25:30.117Z,22.40
2017-08-30T21:27:57.718Z,22.40
2017-08-30T21:30:25.316Z,22.30
2017-08-30T21:32:53.003Z,22.20
2017-08-30T21:35:20.628Z,22.10
2017-08-30T21:37:48.166Z,22.00
2017-08-30T21:40:15.696Z,22.00
2017-08-30T21:42:43.247Z,21.90
2017-08-30T21:45:10.803Z,21.80
2017-08-30T21:47:38.347Z,21.70
2017-08-30T21:50:05.932Z,21.70
2017-08-30T21:52:33.545Z,21.60
2017-08-30T21:55:01.163Z,21.60
2017-08-30T21:57:28.762Z,21.60
2017-08-30T21:59:56.372Z,21.70
2017-08-30T22:02:24.018Z,21.90
2017-08-30T22:04:51.588Z,22.00
2017-08-30T22:07:19.143Z,22.00
2017-08-30T22:09:46.777Z,22.00
2017-08-30T22:12:14.264Z,22.00
2017-08-30T22:14:41.806Z,22.00
2017-08-30T22:17:09.357Z,22.10
2017-08-30T22:19:37.631Z,22.00
2017-08-30T22:22:05.181Z,22.00
2017-08-30T22:24:32.715Z,21.90
2017-08-30T22:27:00.321Z,21.80
2017-08-30T22:29:27.851Z,21.70
2017-08-30T22:31:55.388Z,21.70
2017-08-30T22:34:22.925Z,21.70
2017-08-30T22:36:50.451Z,21.80
2017-08-30T22:39:18.010Z,21.70
2017-08-30T22:41:45.655Z,21.80
2017-08-30T22:44:13.239Z,21.70
2017-08-30T22:46:40.804Z,21.70
2017-08-30T22:49:08.347Z,21.60
2017-08-30T22:51:35.914Z,21.60
2017-08-30T22:54:03.454Z,21.60
2017-08-30T22:56:31.028Z,21.50
2017-08-30T22:58:58.636Z,21.40
2017-08-30T23:01:26.219Z,21.40
2017-08-30T23:03:53.811Z,21.40
2017-08-30T23:06:21.395Z,21.30
2017-08-30T23:08:48.950Z,21.20
2017-08-30T23:11:16.481Z,21.10
2017-08-30T23:13:44.048Z,21.00
2017-08-30T23:16:11.588Z,21.00
2017-08-30T23:18:39.153Z,21.00
2017-08-30T23:21:06.692Z,21.10
2017-08-30T23:23:34.196Z,21.00
2017-08-30T23:26:01.760Z,21.10
2017-08-30T23:28:29.295Z,21.10
2017-08-30T23:30:56.846Z,21.10
2017-08-30T23:33:24.384Z,21.10
2017-08-30T23:35:51.917Z,21.20
2017-08-30T23:38:19.467Z,21.20
2017-08-30T23:40:47.031Z,21.10
2017-08-30T23:43:14.568Z,21.10
2017-08-30T23:45:42.094Z,21.10
2017-08-30T23:48:09.651Z,21.00
2017-08-30T23:50:37.230Z,20.90
2017-08-30T23:53:04.736Z,21.00
2017-08-30T23:55:32.292Z,20.90
2017-08-30T23:57:59.830Z,20.90
